Time;durP1;ratioP1;P1;durP2;ratioP2;P2;SDS_P1;SDS_P2;PMS_P1;PMS_P2;Temp;Humidity;BMP_temperature;BMP_pressure;BME280_temperature;BME280_humidity;BME280_pressure;Samples;Min_cycle;Max_cycle;Signal;HPM_P1;HPM_P2
2024/02/24 00:00:35;;;;;;;5.80;1.38;;;;;;;7.06;87.83;98984.94;5067248;28;20055;-67
2024/02/24 00:03:02;;;;;;;2.78;1.13;;;;;;;7.12;87.56;98982.81;5065748;28;20047;-66
2024/02/24 00:05:30;;;;;;;4.72;1.48;;;;;;;7.27;87.20;98980.28;5049249;28;20135;-66
2024/02/24 00:07:57;;;;;;;4.68;1.95;;;;;;;6.95;87.17;98988.41;5067991;28;20064;-68
2024/02/24 00:10:25;;;;;;;3.90;1.60;;;;;;;7.10;87.38;98985.09;5066466;28;20064;-66
2024/02/24 00:12:52;;;;;;;4.60;1.60;;;;;;;6.93;87.30;98996.97;5073831;28;20044;-67
2024/02/24 00:15:19;;;;;;;3.33;1.50;;;;;;;6.92;88.31;98997.28;5086483;28;20881;-68
2024/02/24 00:17:47;;;;;;;4.00;1.50;;;;;;;7.06;87.17;98995.13;5086695;28;20056;-67
2024/02/24 00:20:14;;;;;;;5.07;1.50;;;;;;;7.22;86.45;98993.41;5069917;28;20422;-67
2024/02/24 00:22:42;;;;;;;4.00;1.50;;;;;;;7.11;85.99;99001.19;5088538;28;20059;-68
2024/02/24 00:25:10;;;;;;;5.15;1.98;;;;;;;7.00;86.76;98999.16;5088815;28;20064;-66
2024/02/24 00:27:37;;;;;;;2.42;1.00;;;;;;;7.01;86.10;99003.53;5087338;28;20052;-68
2024/02/24 00:30:05;;;;;;;2.85;1.13;;;;;;;7.02;85.76;98991.44;5069188;28;20788;-66
2024/02/24 00:32:32;;;;;;;4.15;1.50;;;;;;;7.23;85.24;99000.47;5068452;28;20667;-67
2024/02/24 00:35:00;;;;;;;5.45;1.85;;;;;;;7.19;85.29;98999.53;5068072;28;20049;-66
2024/02/24 00:37:27;;;;;;;5.05;1.35;;;;;;;7.27;83.84;98998.69;5068078;28;20044;-66
2024/02/24 00:39:55;;;;;;;5.88;1.67;;;;;;;7.48;84.41;99002.22;5068122;28;20148;-67
2024/02/24 00:42:22;;;;;;;5.55;2.08;;;;;;;7.40;82.99;99005.81;5066013;28;20073;-67
2024/02/24 00:44:49;;;;;;;3.03;1.23;;;;;;;7.23;83.28;99005.94;5068327;28;20056;-67
2024/02/24 00:47:17;;;;;;;3.25;1.20;;;;;;;7.35;83.14;98997.81;5068083;28;20519;-67
2024/02/24 00:49:44;;;;;;;3.13;1.20;;;;;;;7.14;82.72;99010.66;5067391;28;20056;-67
2024/02/24 00:52:12;;;;;;;5.05;1.48;;;;;;;7.07;83.91;99008.47;5067539;28;20053;-66
2024/02/24 00:54:39;;;;;;;3.88;1.30;;;;;;;7.32;82.69;99003.94;5067839;28;20044;-66
2024/02/24 00:57:06;;;;;;;9.73;1.48;;;;;;;7.39;82.00;98998.75;5071247;28;20397;-66
2024/02/24 00:59:34;;;;;;;3.90;1.15;;;;;;;7.29;81.37;99005.41;5071173;28;20048;-67
2024/02/24 01:02:01;;;;;;;3.80;1.20;;;;;;;7.15;82.67;99015.81;5071237;28;20056;-67
2024/02/24 01:04:29;;;;;;;3.80;1.50;;;;;;;7.05;82.26;99015.41;5071111;28;20134;-66
2024/02/24 01:06:57;;;;;;;3.63;1.10;;;;;;;7.14;82.11;99021.63;5071187;28;20040;-67
2024/02/24 01:09:25;;;;;;;2.75;1.10;;;;;;;7.27;81.53;99018.63;5071162;28;20052;-67
2024/02/24 01:11:53;;;;;;;2.42;1.25;;;;;;;7.18;81.85;99022.56;5070958;28;20045;-68
2024/02/24 01:14:20;;;;;;;3.83;1.25;;;;;;;7.36;81.51;99021.31;5070613;28;20416;-67
2024/02/24 01:16:48;;;;;;;6.85;1.70;;;;;;;6.95;81.25;99024.81;5071183;28;20049;-66
2024/02/24 01:19:15;;;;;;;3.00;1.23;;;;;;;6.92;82.68;99027.41;5070716;28;20051;-66
2024/02/24 01:21:43;;;;;;;3.85;1.20;;;;;;;7.09;82.21;99028.09;5070971;28;20059;-66
2024/02/24 01:24:13;;;;;;;4.25;1.45;;;;;;;7.14;81.75;99038.03;5052235;28;20052;-66
2024/02/24 01:26:40;;;;;;;3.63;1.50;;;;;;;7.05;82.42;99040.84;5069101;28;20049;-66
2024/02/24 01:29:08;;;;;;;3.67;1.30;;;;;;;7.03;82.50;99040.38;5070986;28;20049;-66
2024/02/24 01:31:35;;;;;;;2.97;1.60;;;;;;;7.08;82.58;99044.88;5070482;28;20048;-67
2024/02/24 01:34:02;;;;;;;2.35;1.33;;;;;;;7.09;83.29;99052.75;5084872;28;20051;-67
2024/02/24 01:36:30;;;;;;;4.70;1.27;;;;;;;6.80;83.27;99053.53;5070972;28;20056;-66
2024/02/24 01:38:57;;;;;;;3.05;1.52;;;;;;;6.91;84.16;99059.44;5051968;28;20067;-67
2024/02/24 01:41:24;;;;;;;5.90;1.75;;;;;;;6.72;83.46;99056.28;5068732;28;20594;-67
2024/02/24 01:43:52;;;;;;;3.33;1.60;;;;;;;6.73;83.59;99055.97;5052223;28;20053;-67
2024/02/24 01:46:19;;;;;;;1.95;1.30;;;;;;;6.70;84.23;99064.84;5070614;28;20060;-66
2024/02/24 01:48:46;;;;;;;3.85;1.63;;;;;;;6.87;83.68;99063.16;5069850;28;20806;-67
2024/02/24 01:51:15;;;;;;;6.28;1.63;;;;;;;6.78;83.61;99068.69;5051721;28;20349;-67
2024/02/24 01:53:42;;;;;;;6.03;1.98;;;;;;;6.64;83.62;99074.34;5068570;28;20052;-67
2024/02/24 01:56:09;;;;;;;3.67;1.65;;;;;;;6.67;83.79;99079.19;5069939;28;20060;-67
2024/02/24 01:58:37;;;;;;;3.90;1.63;;;;;;;6.70;83.35;99083.19;5052283;28;20057;-67
2024/02/24 02:01:08;;;;;;;6.40;1.83;;;;;;;6.64;83.36;99076.28;5069912;28;20056;-66
2024/02/24 02:03:36;;;;;;;2.97;1.60;;;;;;;6.65;83.37;99075.97;5069825;28;20040;-66
2024/02/24 02:06:04;;;;;;;4.22;1.60;;;;;;;6.56;83.55;99083.41;5069850;28;20049;-66
2024/02/24 02:08:31;;;;;;;3.97;1.40;;;;;;;6.63;83.19;99072.75;5052387;28;20063;-66
2024/02/24 02:10:59;;;;;;;4.80;1.60;;;;;;;6.60;83.12;99078.06;5070324;28;20048;-67
2024/02/24 02:13:26;;;;;;;3.28;1.30;;;;;;;6.46;83.02;99080.22;5069907;28;20052;-67
2024/02/24 02:15:56;;;;;;;4.05;1.40;;;;;;;6.55;82.51;99084.53;5067218;28;20059;-67
2024/02/24 02:18:23;;;;;;;3.67;1.70;;;;;;;6.57;81.77;99085.00;5070004;28;20454;-67
2024/02/24 02:20:52;;;;;;;6.25;1.85;;;;;;;6.44;81.04;99082.47;5067953;28;20049;-66
2024/02/24 02:23:20;;;;;;;5.00;1.27;;;;;;;6.39;80.95;99088.91;5069289;28;20049;-66
2024/02/24 02:25:47;;;;;;;6.18;1.35;;;;;;;6.47;80.65;99082.59;5084406;28;20056;-67
2024/02/24 02:28:14;;;;;;;4.82;1.38;;;;;;;6.24;80.97;99083.16;5068143;28;20048;-67
2024/02/24 02:30:42;;;;;;;5.65;1.45;;;;;;;6.39;80.27;99090.84;5064690;28;20064;-66
2024/02/24 02:33:09;;;;;;;4.72;1.25;;;;;;;6.67;79.59;99086.56;5049860;28;20060;-66
2024/02/24 02:35:37;;;;;;;6.07;1.42;;;;;;;6.49;79.15;99093.22;5049250;28;20783;-66
2024/02/24 02:38:07;;;;;;;4.97;1.48;;;;;;;6.45;79.69;99095.81;5049414;28;20052;-66
2024/02/24 02:40:35;;;;;;;5.55;1.35;;;;;;;6.41;79.11;99089.41;5048269;28;20060;-68
2024/02/24 02:43:03;;;;;;;4.47;0.98;;;;;;;6.55;78.92;99089.19;5049389;28;20049;-68
2024/02/24 02:45:30;;;;;;;3.60;1.25;;;;;;;6.62;78.45;99087.56;5049273;28;20060;-67
2024/02/24 02:47:58;;;;;;;5.28;1.08;;;;;;;6.41;78.35;99096.78;5047700;28;20064;-67
2024/02/24 02:50:25;;;;;;;4.25;1.35;;;;;;;6.39;78.17;99086.19;5031034;28;20079;-67
2024/02/24 02:52:53;;;;;;;9.88;1.23;;;;;;;6.64;77.54;99093.50;5048890;28;20061;-67
2024/02/24 02:55:20;;;;;;;4.22;1.40;;;;;;;6.56;77.74;99096.25;5057745;28;20044;-67
2024/02/24 02:57:49;;;;;;;3.35;1.20;;;;;;;6.42;77.75;99091.00;5068933;28;20056;-67
2024/02/24 03:00:16;;;;;;;6.57;1.67;;;;;;;6.51;78.25;99097.25;5067511;28;20053;-66
2024/02/24 03:02:44;;;;;;;5.03;1.50;;;;;;;6.55;77.56;99091.94;5068706;28;20052;-67
2024/02/24 03:05:11;;;;;;;5.80;1.35;;;;;;;6.73;77.05;99093.47;5068470;28;20160;-66
2024/02/24 03:07:39;;;;;;;5.97;1.50;;;;;;;6.67;76.99;99089.31;5068637;28;20052;-66
2024/02/24 03:10:07;;;;;;;5.32;1.40;;;;;;;6.54;77.06;99098.50;5068932;28;20164;-68
2024/02/24 03:12:35;;;;;;;2.50;1.10;;;;;;;6.63;77.60;99099.28;5069040;28;20522;-67
2024/02/24 03:15:04;;;;;;;6.53;1.50;;;;;;;6.40;78.42;99101.44;5039514;28;20052;-67
2024/02/24 03:17:31;;;;;;;5.32;1.35;;;;;;;6.41;78.57;99111.28;5056694;28;20855;-66
2024/02/24 03:19:59;;;;;;;10.30;1.38;;;;;;;6.64;78.65;99115.38;5065031;28;20772;-66
2024/02/24 03:22:32;;;;;;;3.30;1.20;;;;;;;6.81;77.46;99114.53;5067334;28;20052;-66
2024/02/24 03:24:59;;;;;;;10.10;1.42;;;;;;;6.52;77.49;99115.25;5049999;28;20687;-66
2024/02/24 03:27:26;;;;;;;6.43;1.92;;;;;;;6.44;78.65;99118.00;5067021;28;20293;-66
2024/02/24 03:29:53;;;;;;;6.00;1.42;;;;;;;6.33;79.40;99120.28;5082586;28;20056;-66
2024/02/24 03:32:21;;;;;;;5.25;1.50;;;;;;;6.36;79.71;99130.56;5068079;28;20052;-66
2024/02/24 03:34:48;;;;;;;4.20;1.20;;;;;;;6.26;80.50;99130.91;5067656;28;20714;-66
2024/02/24 03:37:15;;;;;;;5.53;1.40;;;;;;;6.41;81.02;99130.41;5068718;28;20067;-67
2024/02/24 03:39:43;;;;;;;6.75;1.70;;;;;;;6.33;80.53;99125.75;5066494;28;20056;-66
2024/02/24 03:42:10;;;;;;;5.13;1.48;;;;;;;6.28;80.94;99125.09;5050136;28;20750;-67
2024/02/24 03:44:37;;;;;;;5.50;1.40;;;;;;;6.39;80.96;99121.72;5066651;28;20048;-67
2024/02/24 03:47:05;;;;;;;3.50;1.52;;;;;;;6.15;81.73;99123.38;5049943;28;20185;-66
2024/02/24 03:49:32;;;;;;;4.53;1.40;;;;;;;6.25;81.81;99120.28;5067647;28;20063;-67
2024/02/24 03:52:00;;;;;;;5.03;1.45;;;;;;;6.19;82.28;99130.59;5066894;28;20059;-66
2024/02/24 03:54:27;;;;;;;5.05;1.38;;;;;;;6.07;82.57;99130.44;5067671;28;20110;-65
2024/02/24 03:56:54;;;;;;;3.13;1.40;;;;;;;5.91;83.45;99134.00;5068393;28;20052;-66
2024/02/24 03:59:21;;;;;;;6.38;1.48;;;;;;;6.10;82.63;99140.72;5068139;28;20423;-67
2024/02/24 04:01:49;;;;;;;5.57;1.40;;;;;;;6.15;81.83;99142.50;5068266;28;20059;-66
2024/02/24 04:04:16;;;;;;;5.53;1.50;;;;;;;6.18;81.76;99145.41;5067775;28;20052;-66
2024/02/24 04:06:44;;;;;;;8.02;1.50;;;;;;;6.12;81.83;99149.41;5066557;28;20048;-66
2024/02/24 04:09:11;;;;;;;7.00;1.73;;;;;;;6.20;81.85;99153.28;5067937;28;20625;-66
2024/02/24 04:11:39;;;;;;;8.20;1.80;;;;;;;5.96;81.84;99164.69;5069123;28;20060;-66
2024/02/24 04:14:06;;;;;;;4.55;1.38;;;;;;;5.99;81.95;99164.06;5073678;28;20091;-65
2024/02/24 04:16:34;;;;;;;5.43;1.75;;;;;;;6.15;81.32;99165.19;5066436;28;20045;-67
2024/02/24 04:19:01;;;;;;;6.82;1.60;;;;;;;6.33;80.67;99169.50;5082387;28;20060;-66
2024/02/24 04:21:29;;;;;;;2.75;1.30;;;;;;;6.20;80.58;99166.94;5051589;28;20052;-66
2024/02/24 04:23:56;;;;;;;7.50;1.98;;;;;;;6.11;81.07;99166.13;5067728;28;20052;-67
2024/02/24 04:26:24;;;;;;;4.85;1.55;;;;;;;6.01;81.18;99166.47;5067774;28;20052;-69
2024/02/24 04:28:51;;;;;;;6.03;1.60;;;;;;;5.91;81.25;99173.03;5082343;28;20060;-67
2024/02/24 04:31:18;;;;;;;5.28;1.30;;;;;;;6.16;81.12;99172.25;5091060;28;20055;-66
2024/02/24 04:33:46;;;;;;;4.63;1.27;;;;;;;6.42;79.72;99172.22;5091650;28;20414;-66
2024/02/24 04:36:13;;;;;;;5.45;1.75;;;;;;;6.15;80.20;99189.78;5091719;28;20668;-66
2024/02/24 04:38:41;;;;;;;5.13;1.48;;;;;;;6.36;79.80;99190.72;5091910;28;20056;-66
2024/02/24 04:41:08;;;;;;;5.28;1.60;;;;;;;6.27;79.41;99195.41;5092005;28;20052;-66
2024/02/24 04:43:36;;;;;;;3.47;1.30;;;;;;;6.18;79.62;99194.59;5090393;28;20056;-66
2024/02/24 04:46:04;;;;;;;6.30;1.45;;;;;;;6.30;79.67;99193.94;5056452;28;20044;-66
2024/02/24 04:48:31;;;;;;;7.60;1.80;;;;;;;6.26;79.77;99190.28;5091530;28;20064;-65
2024/02/24 04:50:59;;;;;;;8.27;2.00;;;;;;;6.38;79.33;99199.41;5090134;28;20060;-66
2024/02/24 04:53:29;;;;;;;10.82;2.50;;;;;;;6.08;80.76;99200.41;5089780;28;20106;-66
2024/02/24 04:55:57;;;;;;;9.48;1.95;;;;;;;6.35;80.04;99197.31;5075112;28;20064;-67
2024/02/24 04:58:24;;;;;;;8.98;1.70;;;;;;;6.21;80.51;99210.34;5071182;28;20056;-66
2024/02/24 05:00:52;;;;;;;7.53;1.70;;;;;;;6.24;80.82;99204.22;5072108;28;20741;-67
2024/02/24 05:03:19;;;;;;;14.25;2.08;;;;;;;6.17;81.71;99212.09;5071679;28;20056;-66
2024/02/24 05:05:47;;;;;;;6.35;2.00;;;;;;;6.15;82.02;99219.84;5052505;28;20059;-66
2024/02/24 05:08:14;;;;;;;8.70;2.10;;;;;;;6.24;81.90;99215.16;5071979;28;20060;-66
2024/02/24 05:10:41;;;;;;;7.55;1.90;;;;;;;6.09;81.86;99215.66;5069763;28;20055;-68
2024/02/24 05:13:09;;;;;;;11.65;1.98;;;;;;;6.31;81.26;99210.03;5070207;28;20053;-66
2024/02/24 05:15:36;;;;;;;8.95;2.05;;;;;;;6.09;81.64;99225.78;5069130;28;20062;-66
2024/02/24 05:18:04;;;;;;;9.95;2.42;;;;;;;6.17;82.39;99225.78;5071202;28;20056;-66
2024/02/24 05:20:31;;;;;;;13.93;2.25;;;;;;;6.26;81.92;99225.81;5069391;28;20073;-66
2024/02/24 05:23:00;;;;;;;13.55;2.50;;;;;;;6.15;82.64;99222.59;5071136;28;20056;-66
2024/02/24 05:25:30;;;;;;;11.07;3.38;;;;;;;6.00;83.40;99225.78;5069191;28;20063;-66
2024/02/24 05:27:58;;;;;;;7.25;2.20;;;;;;;6.11;83.62;99235.28;5071031;28;20083;-67
2024/02/24 05:30:25;;;;;;;8.77;2.58;;;;;;;6.03;83.66;99238.81;5069679;28;20057;-68
2024/02/24 05:32:53;;;;;;;8.05;2.08;;;;;;;6.04;83.66;99247.78;5070865;28;20048;-67
2024/02/24 05:35:25;;;;;;;10.13;2.40;;;;;;;6.13;83.91;99245.88;5068608;28;20396;-67
2024/02/24 05:37:53;;;;;;;7.75;2.45;;;;;;;6.06;84.37;99251.84;5068572;28;20064;-67
2024/02/24 05:40:20;;;;;;;8.25;2.22;;;;;;;6.06;83.42;99259.22;5070320;28;20423;-66
2024/02/24 05:42:48;;;;;;;7.30;2.45;;;;;;;6.05;83.83;99258.41;5069988;28;20059;-67
2024/02/24 05:45:16;;;;;;;8.48;2.28;;;;;;;6.08;84.46;99252.31;5070280;28;20127;-67
2024/02/24 05:47:43;;;;;;;7.30;2.30;;;;;;;6.25;84.04;99249.59;5068955;28;20056;-67
2024/02/24 05:50:11;;;;;;;7.40;2.25;;;;;;;6.34;83.48;99260.53;5069821;28;20060;-66
2024/02/24 05:52:38;;;;;;;12.10;2.63;;;;;;;6.39;83.38;99257.66;5070637;28;20052;-66
2024/02/24 05:55:09;;;;;;;9.13;1.85;;;;;;;6.11;83.46;99265.34;5068120;28;20060;-66
2024/02/24 05:57:36;;;;;;;11.40;1.90;;;;;;;5.94;83.88;99267.25;5070540;28;20048;-67
2024/02/24 06:00:05;;;;;;;12.55;2.63;;;;;;;5.75;84.96;99262.81;5070788;28;20057;-67
2024/02/24 06:02:38;;;;;;;6.93;2.10;;;;;;;6.03;85.03;99276.25;5070928;28;20067;-67
2024/02/24 06:05:06;;;;;;;7.88;2.40;;;;;;;5.92;84.72;99270.28;5070413;28;20057;-67
2024/02/24 06:07:33;;;;;;;9.15;2.08;;;;;;;6.06;84.51;99278.34;5071085;28;20052;-67
2024/02/24 06:10:01;;;;;;;6.85;2.35;;;;;;;6.20;84.38;99285.31;5052733;28;20064;-67
2024/02/24 06:12:29;;;;;;;9.68;2.55;;;;;;;6.15;84.96;99285.47;5068335;28;20056;-66
2024/02/24 06:14:56;;;;;;;12.18;2.78;;;;;;;6.24;84.61;99280.00;5069158;28;20052;-66
2024/02/24 06:17:23;;;;;;;6.03;2.22;;;;;;;6.15;83.71;99288.19;5069999;28;20746;-67
2024/02/24 06:19:51;;;;;;;13.68;2.55;;;;;;;6.35;83.85;99287.56;5068115;28;20061;-67
2024/02/24 06:22:18;;;;;;;4.03;1.92;;;;;;;6.53;82.83;99291.94;5068453;28;20060;-66
2024/02/24 06:24:46;;;;;;;7.45;2.05;;;;;;;6.53;82.44;99288.38;5069628;28;20059;-66
2024/02/24 06:27:13;;;;;;;10.38;2.25;;;;;;;6.40;82.51;99294.78;5068157;28;20059;-66
2024/02/24 06:29:41;;;;;;;6.78;2.10;;;;;;;6.35;82.60;99306.72;5070036;28;20055;-66
2024/02/24 06:32:09;;;;;;;7.93;2.05;;;;;;;6.04;83.19;99311.47;5068368;28;20060;-67
2024/02/24 06:34:43;;;;;;;7.97;2.90;;;;;;;6.12;83.46;99313.41;5068125;28;20052;-67
2024/02/24 06:37:11;;;;;;;10.68;2.30;;;;;;;6.22;82.98;99315.88;5069061;28;20060;-67
2024/02/24 06:39:38;;;;;;;8.35;2.60;;;;;;;6.33;83.10;99319.09;5069347;28;20763;-66
2024/02/24 06:42:06;;;;;;;9.30;2.30;;;;;;;6.22;82.55;99324.06;5069692;28;20060;-67
2024/02/24 06:44:33;;;;;;;6.88;2.20;;;;;;;6.03;82.78;99333.66;5069365;28;20483;-67
2024/02/24 06:47:00;;;;;;;8.48;2.25;;;;;;;6.10;82.72;99334.00;5068745;28;20048;-68
2024/02/24 06:49:37;;;;;;;8.48;2.10;;;;;;;6.13;82.66;99341.56;5051960;28;20049;-66
2024/02/24 06:52:05;;;;;;;7.90;2.70;;;;;;;6.08;83.06;99337.06;5069046;28;20419;-67
2024/02/24 06:54:32;;;;;;;9.35;2.40;;;;;;;6.21;83.21;99343.50;5067282;28;20044;-67
2024/02/24 06:56:59;;;;;;;8.40;1.80;;;;;;;6.40;82.25;99344.03;5069023;28;20491;-67
2024/02/24 06:59:29;;;;;;;7.85;2.10;;;;;;;6.36;81.79;99354.00;5067363;28;20067;-67
2024/02/24 07:01:56;;;;;;;6.05;2.25;;;;;;;6.40;81.38;99353.03;5067196;28;20060;-67
2024/02/24 07:04:24;;;;;;;6.95;1.90;;;;;;;6.25;81.21;99356.22;5068820;28;20052;-67
2024/02/24 07:06:51;;;;;;;8.75;2.35;;;;;;;6.28;81.14;99357.50;5067223;28;20055;-68
2024/02/24 07:09:19;;;;;;;6.05;2.05;;;;;;;6.38;81.46;99358.00;5034027;28;20053;-66
2024/02/24 07:11:46;;;;;;;6.43;1.85;;;;;;;6.36;81.60;99360.25;5069531;28;20048;-67
2024/02/24 07:14:14;;;;;;;8.57;2.17;;;;;;;6.51;80.70;99359.00;5068707;28;20059;-67
2024/02/24 07:16:42;;;;;;;6.55;1.92;;;;;;;6.43;81.19;99359.81;5069205;28;20071;-68
2024/02/24 07:19:09;;;;;;;10.55;2.00;;;;;;;6.29;81.21;99359.13;5050654;28;20059;-67
2024/02/24 07:21:41;;;;;;;9.52;2.22;;;;;;;6.48;81.20;99365.13;5067040;28;20055;-67
2024/02/24 07:24:09;;;;;;;10.63;2.13;;;;;;;6.44;81.45;99370.44;5051060;28;20049;-68
2024/02/24 07:26:43;;;;;;;11.65;2.67;;;;;;;6.47;81.50;99377.19;5066589;28;20064;-66
2024/02/24 07:29:16;;;;;;;10.35;2.30;;;;;;;6.45;81.77;99379.44;5068597;28;20060;-68
2024/02/24 07:31:43;;;;;;;6.32;1.90;;;;;;;6.58;81.31;99367.56;5066846;28;20067;-67
2024/02/24 07:34:10;;;;;;;9.85;2.70;;;;;;;6.52;81.39;99379.78;5066705;28;20499;-67
2024/02/24 07:36:38;;;;;;;7.00;2.47;;;;;;;6.55;81.03;99377.22;5067837;28;20056;-67
2024/02/24 07:39:05;;;;;;;9.68;2.10;;;;;;;6.53;80.87;99379.47;5068561;28;20124;-67
2024/02/24 07:41:32;;;;;;;8.00;2.28;;;;;;;6.38;80.62;99381.84;5068402;28;20057;-68
2024/02/24 07:44:00;;;;;;;8.80;2.70;;;;;;;6.47;80.40;99393.59;5068408;28;20581;-67
2024/02/24 07:46:29;;;;;;;5.75;1.83;;;;;;;6.49;80.22;99383.94;5049682;28;20068;-67
2024/02/24 07:48:57;;;;;;;8.18;2.22;;;;;;;6.39;80.10;99395.19;5067938;28;20814;-67
2024/02/24 07:51:26;;;;;;;6.35;1.85;;;;;;;6.58;80.37;99393.00;5068150;28;20060;-68
2024/02/24 07:53:53;;;;;;;7.90;2.00;;;;;;;6.67;79.83;99398.47;5067638;28;20060;-68
2024/02/24 07:56:22;;;;;;;8.82;2.08;;;;;;;6.65;79.87;99407.00;5068320;28;20045;-67
2024/02/24 07:58:49;;;;;;;8.82;1.98;;;;;;;6.52;78.79;99407.13;5068750;28;20041;-68
2024/02/24 08:01:17;;;;;;;7.25;2.20;;;;;;;6.35;80.09;99418.81;5050481;28;20056;-66
2024/02/24 08:03:45;;;;;;;9.60;2.00;;;;;;;6.57;80.23;99421.44;5068348;28;20053;-68
2024/02/24 08:06:12;;;;;;;7.13;1.90;;;;;;;6.42;80.67;99419.16;5072142;28;20048;-67
2024/02/24 08:08:40;;;;;;;11.00;2.20;;;;;;;6.46;81.00;99430.28;5070647;28;20049;-68
2024/02/24 08:11:07;;;;;;;5.57;2.05;;;;;;;6.42;80.37;99434.75;5053722;28;20056;-66
2024/02/24 08:13:41;;;;;;;9.40;2.50;;;;;;;6.24;80.96;99439.38;5057699;28;20037;-67
2024/02/24 08:16:09;;;;;;;13.15;2.35;;;;;;;6.53;79.85;99452.50;5069786;28;20056;-68
2024/02/24 08:18:36;;;;;;;5.50;2.08;;;;;;;7.24;83.34;99440.19;5066459;28;20045;-68
2024/02/24 08:21:06;;;;;;;8.93;1.90;;;;;;;7.08;78.73;99447.31;5067215;28;20068;-67
2024/02/24 08:23:35;;;;;;;8.77;1.90;;;;;;;6.79;78.29;99448.72;5051515;28;20060;-67
2024/02/24 08:26:03;;;;;;;7.22;1.92;;;;;;;6.87;79.02;99455.31;5065660;28;20060;-66
2024/02/24 08:28:30;;;;;;;8.63;2.13;;;;;;;7.07;78.69;99449.22;5068059;28;20049;-65
2024/02/24 08:30:59;;;;;;;5.53;1.80;;;;;;;6.93;78.29;99454.03;5062175;28;20060;-67
2024/02/24 08:33:27;;;;;;;6.50;1.98;;;;;;;6.96;77.61;99466.28;5064521;28;20063;-67
2024/02/24 08:35:55;;;;;;;6.72;1.95;;;;;;;7.03;77.80;99461.94;5069873;28;20052;-66
2024/02/24 08:38:22;;;;;;;6.07;1.70;;;;;;;7.10;77.99;99469.66;5051315;28;20059;-68
2024/02/24 08:40:50;;;;;;;9.32;2.00;;;;;;;6.98;78.10;99472.22;5066565;28;20060;-67
2024/02/24 08:43:17;;;;;;;6.35;1.63;;;;;;;7.04;78.13;99470.97;5082114;28;20048;-66
2024/02/24 08:45:44;;;;;;;8.20;2.50;;;;;;;7.01;78.15;99474.34;5069550;28;20064;-66
2024/02/24 08:48:12;;;;;;;8.38;2.00;;;;;;;7.34;77.77;99476.28;5068604;28;20056;-67
2024/02/24 08:50:40;;;;;;;9.68;1.73;;;;;;;7.39;76.43;99480.81;5070978;28;20052;-66
2024/02/24 08:53:08;;;;;;;9.70;2.28;;;;;;;7.21;76.70;99477.25;5057454;28;20075;-67
2024/02/24 08:55:35;;;;;;;8.75;2.28;;;;;;;7.15;77.52;99480.50;5065748;28;20044;-66
2024/02/24 08:58:03;;;;;;;8.27;1.88;;;;;;;6.78;78.74;99481.88;5086487;28;20048;-66
2024/02/24 09:00:31;;;;;;;9.48;2.22;;;;;;;6.98;78.54;99484.00;5058733;28;20067;-67
2024/02/24 09:02:58;;;;;;;8.40;2.17;;;;;;;7.18;78.08;99491.59;5063413;28;20064;-67
2024/02/24 09:05:26;;;;;;;8.43;2.42;;;;;;;7.27;78.01;99489.66;5070077;28;20049;-67
2024/02/24 09:07:53;;;;;;;10.88;2.03;;;;;;;7.30;77.41;99501.91;5057508;28;20037;-68
2024/02/24 09:10:20;;;;;;;8.18;2.00;;;;;;;7.50;77.52;99488.38;5058913;28;20056;-66
2024/02/24 09:12:48;;;;;;;6.65;2.22;;;;;;;7.41;77.27;99492.25;5039273;28;20056;-67
2024/02/24 09:15:15;;;;;;;8.77;2.03;;;;;;;7.40;77.12;99493.38;5058349;28;20056;-66
2024/02/24 09:17:42;;;;;;;6.07;1.70;;;;;;;7.35;76.90;99497.09;5056075;28;20053;-67
2024/02/24 09:20:11;;;;;;;10.05;2.10;;;;;;;7.23;77.86;99504.31;5038253;28;20059;-67
2024/02/24 09:22:41;;;;;;;7.18;2.28;;;;;;;7.34;76.84;99503.69;5067046;28;20048;-66
2024/02/24 09:25:13;;;;;;;9.35;2.30;;;;;;;7.53;77.00;99508.88;5059566;28;20057;-68
2024/02/24 09:27:41;;;;;;;9.35;2.40;;;;;;;7.55;77.12;99512.88;5070852;28;20851;-67
2024/02/24 09:30:12;;;;;;;5.90;1.88;;;;;;;7.72;76.34;99512.84;5056891;28;20056;-67
2024/02/24 09:32:40;;;;;;;10.85;2.30;;;;;;;7.67;75.53;99514.97;5055607;28;20056;-67
2024/02/24 09:35:08;;;;;;;9.30;2.33;;;;;;;7.74;76.31;99520.78;5057284;28;20055;-67
2024/02/24 09:37:36;;;;;;;7.47;2.10;;;;;;;7.88;75.88;99526.88;5068635;28;20048;-66
2024/02/24 09:40:07;;;;;;;7.97;2.38;;;;;;;7.96;75.41;99520.59;5068179;28;20048;-66
2024/02/24 09:42:34;;;;;;;11.52;2.35;;;;;;;8.09;75.36;99527.81;5085313;28;20061;-66
2024/02/24 09:45:05;;;;;;;8.70;2.05;;;;;;;7.89;75.38;99536.72;5056636;28;20733;-66
2024/02/24 09:47:32;;;;;;;10.00;2.30;;;;;;;8.28;75.23;99539.25;5068587;28;20052;-67
2024/02/24 09:50:00;;;;;;;8.63;2.15;;;;;;;8.25;74.81;99537.16;5068061;28;20459;-67
2024/02/24 09:52:30;;;;;;;6.13;2.15;;;;;;;8.30;74.21;99533.47;5062262;28;20056;-67
2024/02/24 09:54:58;;;;;;;8.70;1.65;;;;;;;8.23;73.81;99533.91;5068014;28;20070;-66
2024/02/24 09:57:29;;;;;;;8.00;2.40;;;;;;;8.33;73.88;99536.34;5023427;28;20092;-66
2024/02/24 09:59:57;;;;;;;8.73;2.20;;;;;;;8.44;72.58;99536.81;5062104;28;20049;-67
2024/02/24 10:02:26;;;;;;;9.75;2.22;;;;;;;8.43;72.54;99543.41;5061485;28;20494;-67
2024/02/24 10:04:54;;;;;;;6.55;2.55;;;;;;;8.42;72.77;99537.09;5068841;28;20056;-68
2024/02/24 10:07:22;;;;;;;9.25;2.80;;;;;;;8.31;71.87;99529.56;5064054;28;20151;-66
2024/02/24 10:09:53;;;;;;;9.38;2.05;;;;;;;8.29;72.62;99546.34;5068439;28;20048;-67
2024/02/24 10:12:20;;;;;;;7.95;1.90;;;;;;;8.21;72.22;99543.59;5070638;28;20059;-65
2024/02/24 10:14:48;;;;;;;13.23;2.78;;;;;;;8.28;72.22;99546.69;5071037;28;20055;-68
2024/02/24 10:17:16;;;;;;;6.93;2.00;;;;;;;8.28;72.28;99550.22;5068243;28;20431;-68
2024/02/24 10:19:45;;;;;;;6.85;2.22;;;;;;;8.55;71.71;99554.50;5062091;28;20048;-68
2024/02/24 10:22:17;;;;;;;9.47;2.10;;;;;;;8.51;71.57;99551.63;5068088;28;20052;-68
2024/02/24 10:24:45;;;;;;;5.78;2.00;;;;;;;8.44;71.65;99556.78;5057421;28;20048;-68
2024/02/24 10:27:16;;;;;;;7.45;2.03;;;;;;;8.39;72.58;99556.97;5060067;28;20067;-68
2024/02/24 10:29:50;;;;;;;12.48;5.53;;;;;;;8.82;71.43;99551.34;5062146;28;20044;-68
2024/02/24 10:32:18;;;;;;;8.82;3.10;;;;;;;8.69;71.18;99547.69;5058553;28;20076;-69
2024/02/24 10:34:45;;;;;;;8.77;2.03;;;;;;;8.70;71.21;99545.75;5046829;28;20057;-68
2024/02/24 10:37:13;;;;;;;6.40;2.00;;;;;;;8.49;71.37;99550.34;5031134;28;20049;-66
2024/02/24 10:39:40;;;;;;;10.00;2.30;;;;;;;8.72;71.55;99546.19;5056706;28;20048;-67
2024/02/24 10:42:08;;;;;;;10.30;2.20;;;;;;;8.77;71.09;99555.06;5039346;28;20424;-66
2024/02/24 10:44:36;;;;;;;8.23;2.22;;;;;;;8.61;71.70;99554.00;5065483;28;20048;-67
2024/02/24 10:47:04;;;;;;;9.05;2.40;;;;;;;8.54;71.51;99552.91;5057880;28;20067;-67
2024/02/24 10:49:31;;;;;;;5.07;1.52;;;;;;;8.41;71.13;99565.69;5033147;28;20049;-68
2024/02/24 10:51:59;;;;;;;6.72;1.77;;;;;;;8.61;70.58;99558.69;5058197;28;20053;-67
2024/02/24 10:54:31;;;;;;;9.73;2.53;;;;;;;8.89;69.93;99546.94;5066477;28;20048;-68
2024/02/24 10:57:00;;;;;;;9.75;2.15;;;;;;;9.12;68.23;99549.41;5059495;28;20060;-68
2024/02/24 10:59:31;;;;;;;10.65;2.25;;;;;;;9.12;68.46;99546.66;5047130;28;20048;-68
2024/02/24 11:02:00;;;;;;;8.05;2.00;;;;;;;9.02;68.51;99550.59;5050736;28;20053;-70
2024/02/24 11:04:29;;;;;;;8.32;1.90;;;;;;;9.06;68.92;99541.38;5058737;28;20056;-71
2024/02/24 11:07:03;;;;;;;10.77;2.63;;;;;;;9.06;68.46;99546.88;5065861;28;20148;-70
2024/02/24 11:09:38;;;;;;;5.47;1.55;;;;;;;9.01;68.12;99549.78;5068148;28;20047;-70
2024/02/24 11:12:16;;;;;;;10.98;2.08;;;;;;;9.42;67.29;99556.47;5039366;28;20056;-70
2024/02/24 11:14:47;;;;;;;6.53;1.90;;;;;;;9.32;66.77;99554.94;5071901;28;20058;-69
2024/02/24 11:17:51;;;;;;;8.20;1.98;;;;;;;9.42;67.27;99548.22;5067340;28;20052;-70
2024/02/24 11:20:45;;;;;;;7.88;1.90;;;;;;;9.85;66.21;99545.97;5062279;28;20045;-70
2024/02/24 11:23:31;;;;;;;7.85;2.10;;;;;;;9.67;66.06;99541.75;5065433;28;20052;-69
2024/02/24 11:26:19;;;;;;;7.15;1.77;;;;;;;9.56;66.44;99541.34;5071300;28;20056;-70
2024/02/24 11:28:49;;;;;;;7.50;2.00;;;;;;;9.74;66.43;99550.25;5065761;28;20049;-70
2024/02/24 11:31:17;;;;;;;7.83;2.00;;;;;;;9.98;65.49;99542.13;5069452;28;20067;-70
2024/02/24 11:33:44;;;;;;;8.00;2.20;;;;;;;9.90;64.86;99545.75;5069868;28;20056;-69
2024/02/24 11:36:13;;;;;;;8.75;2.53;;;;;;;10.13;65.05;99539.56;5069299;28;20060;-69
2024/02/24 11:38:40;;;;;;;9.82;2.95;;;;;;;10.06;65.09;99544.78;5072207;28;20051;-70
2024/02/24 11:41:08;;;;;;;10.77;3.17;;;;;;;10.04;65.38;99544.31;5070996;28;20052;-71
2024/02/24 11:43:35;;;;;;;8.30;2.10;;;;;;;10.07;64.79;99548.34;5051145;28;20055;-70
2024/02/24 11:46:03;;;;;;;10.00;2.15;;;;;;;9.84;64.58;99545.16;5052660;28;20056;-70